For water level readings from Victoria harbour, visit our Tides page.

DISCLAIMER: Although GVHA takes care to produce accurate readings from Ogden Point, the weather information on this site is raw data fed directly from sensors. It does not go through the same quality control processes used by professional weather services, and should not be relied on as a sole source of weather information for Victoria harbour.

In-depth weather values from Victoria Harbour can be found on the Environment Canada website.

Location: Ogden Point Breakwater

Current time: Aug 7, 2020 7:01 PM GMT | Aug 7, 2020 12:01 PM

Last Hour Last 3 Hours Last 6 Hours Last 12 Hours
Time Peak Wind Speed Avg Speed Avg Direction Avg Air Temp Avg Dew Point Avg Humidity
Aug 7, 2020 12:00 PM 11.7 knots 11 knots 126° True 13.5° C / 57° F 10.6° C / 51.2° F 82.5%
Aug 7, 2020 11:50 AM 11.8 knots 10.8 knots 122° True 13.2° C / 56.4° F 10.3° C / 50.6° F 82.6%
Aug 7, 2020 11:40 AM 11.2 knots 9.8 knots 121° True 12.4° C / 54.8° F 10.2° C / 50.4° F 86.4%
Aug 7, 2020 11:30 AM 10.8 knots 8.9 knots 119° True 12.5° C / 55° F 10.2° C / 50.4° F 86.1%
Aug 7, 2020 11:20 AM 12.7 knots 11.4 knots 124° True 13° C / 56° F 10.3° C / 50.6° F 83.5%
Aug 7, 2020 11:10 AM 12.8 knots 11.9 knots 123° True 13° C / 56° F 10.3° C / 50.6° F 83.7%
Aug 7, 2020 11:00 AM 11.5 knots 10 knots 130° True 12.6° C / 55.2° F 10.4° C / 50.8° F 86.5%
Aug 7, 2020 10:50 AM 9.6 knots 8.7 knots 128° True 12.4° C / 54.8° F 10.4° C / 50.8° F 87.4%
Aug 7, 2020 10:40 AM 9.7 knots 8.6 knots 122° True 12.4° C / 54.8° F 10.4° C / 50.8° F 87.5%
Aug 7, 2020 10:30 AM 11.3 knots 7.7 knots 119° True 12.7° C / 55.4° F 10.6° C / 51.2° F 86.9%
Aug 7, 2020 10:20 AM 10.8 knots 8.2 knots 123° True 12.6° C / 55.2° F 10.7° C / 51.4° F 88%
Aug 7, 2020 10:10 AM 9.2 knots 7.7 knots 134° True 12.3° C / 54.6° F 10.6° C / 51.2° F 89.1%
Aug 7, 2020 10:00 AM 11.1 knots 9.9 knots 143° True 12.3° C / 54.6° F 10.7° C / 51.4° F 89.7%
Aug 7, 2020 09:50 AM 11.3 knots 9.4 knots 140° True 11.9° C / 53.8° F 10.6° C / 51.2° F 91.8%
Aug 7, 2020 09:40 AM 9.2 knots 7.6 knots 120° True 11.8° C / 53.6° F 10.5° C / 51° F 91.8%
Aug 7, 2020 09:30 AM 11.4 knots 9.2 knots 159° True 12.1° C / 54.2° F 10.8° C / 51.6° F 91.8%
Aug 7, 2020 09:20 AM 11.4 knots 9.5 knots 162° True 12° C / 54° F 10.8° C / 51.6° F 92.5%
Aug 7, 2020 09:10 AM 9.4 knots 7.9 knots 155° True 11.9° C / 53.8° F 10.7° C / 51.4° F 92.7%
Aug 7, 2020 09:00 AM 9.8 knots 8.3 knots 154° True 11.9° C / 53.8° F 10.8° C / 51.6° F 93%
Aug 7, 2020 08:50 AM 10.1 knots 9.3 knots 147° True 11.7° C / 53.4° F 10.7° C / 51.4° F 93.5%
Aug 7, 2020 08:40 AM 9.6 knots 8 knots 146° True 11.4° C / 52.8° F 10.4° C / 50.8° F 93.5%
Aug 7, 2020 08:30 AM 9.7 knots 8.5 knots 151° True 11.5° C / 53° F 10.4° C / 50.8° F 93.2%
Aug 7, 2020 08:20 AM 9.9 knots 9.1 knots 165° True 11.3° C / 52.6° F 10.3° C / 50.6° F 93.2%
Aug 7, 2020 08:10 AM 10.7 knots 9.4 knots 167° True 11.3° C / 52.6° F 10.1° C / 50.2° F 92.7%
Aug 7, 2020 08:00 AM 10.3 knots 8.6 knots 161° True 11.6° C / 53.2° F 10.2° C / 50.4° F 90.8%
Aug 7, 2020 07:50 AM 10.8 knots 8 knots 180° True 12.6° C / 55.2° F 10.5° C / 51° F 86.9%
Aug 7, 2020 07:40 AM 13.9 knots 12.3 knots 211° True 13.9° C / 57.8° F 11° C / 52° F 83%
Aug 7, 2020 07:30 AM 13.7 knots 13 knots 206° True 13.8° C / 57.6° F 11° C / 52° F 83.7%
Aug 7, 2020 07:20 AM 14.9 knots 13.7 knots 206° True 13.8° C / 57.6° F 11.2° C / 52.4° F 84%
Aug 7, 2020 07:10 AM 15.2 knots 14.1 knots 202° True 13.7° C / 57.4° F 11.2° C / 52.4° F 84.8%
Aug 7, 2020 07:00 AM 13.9 knots 12.9 knots 196° True 13.3° C / 56.6° F 11.2° C / 52.4° F 86.9%
Aug 7, 2020 06:50 AM 11.5 knots 10.3 knots 190° True 13.2° C / 56.4° F 11.1° C / 52.2° F 86.7%
Aug 7, 2020 06:40 AM 10.3 knots 9.4 knots 207° True 13.4° C / 56.8° F 11.1° C / 52.2° F 85.8%
Aug 7, 2020 06:30 AM 13.4 knots 10.6 knots 210° True 13.6° C / 57.2° F 11° C / 52° F 84.7%
Aug 7, 2020 06:20 AM 13.7 knots 11.9 knots 220° True 13.7° C / 57.4° F 11.1° C / 52.2° F 84.4%
Aug 7, 2020 06:10 AM 14.9 knots 12.7 knots 223° True 13.7° C / 57.4° F 11.1° C / 52.2° F 84.6%
Aug 7, 2020 06:00 AM 15 knots 11.8 knots 219° True 13.6° C / 57.2° F 11.2° C / 52.4° F 85.6%
Aug 7, 2020 05:50 AM 14.1 knots 10.9 knots 211° True 13.6° C / 57.2° F 11.3° C / 52.6° F 86.3%
Aug 7, 2020 05:40 AM 13.9 knots 10.2 knots 206° True 13.3° C / 56.6° F 11.3° C / 52.6° F 87.6%
Aug 7, 2020 05:30 AM 11.3 knots 10.1 knots 199° True 13.2° C / 56.4° F 11.1° C / 52.2° F 87.2%
Aug 7, 2020 05:20 AM 11.8 knots 10.3 knots 198° True 13.3° C / 56.6° F 11.2° C / 52.4° F 87.1%
Aug 7, 2020 05:10 AM 13.2 knots 12.1 knots 196° True 13.4° C / 56.8° F 11.2° C / 52.4° F 86.7%
Aug 7, 2020 05:00 AM 13.3 knots 12.3 knots 197° True 13.2° C / 56.4° F 11.1° C / 52.2° F 87.1%
Aug 7, 2020 04:50 AM 13.8 knots 12.6 knots 197° True 13.3° C / 56.6° F 11.1° C / 52.2° F 86.5%
Aug 7, 2020 04:40 AM 14.1 knots 12.3 knots 201° True 13.5° C / 57° F 11° C / 52° F 84.6%
Aug 7, 2020 04:30 AM 14.5 knots 12.5 knots 211° True 13.6° C / 57.2° F 11° C / 52° F 84%
Aug 7, 2020 04:20 AM 12.9 knots 11.6 knots 215° True 13.4° C / 56.8° F 11° C / 52° F 84.9%
Aug 7, 2020 04:10 AM 14.6 knots 12.1 knots 215° True 13.6° C / 57.2° F 11° C / 52° F 84.5%
Aug 7, 2020 04:00 AM 13.7 knots 12.6 knots 220° True 13.7° C / 57.4° F 10.9° C / 51.8° F 83.3%
Aug 7, 2020 03:50 AM 15.5 knots 13.7 knots 226° True 13.7° C / 57.4° F 11° C / 52° F 83.6%
Aug 7, 2020 03:40 AM 14.7 knots 13.4 knots 227° True 13.7° C / 57.4° F 11.1° C / 52.2° F 84.4%
Aug 7, 2020 03:30 AM 15.6 knots 13.6 knots 230° True 13.6° C / 57.2° F 11.2° C / 52.4° F 85.4%
Aug 7, 2020 03:20 AM 15.8 knots 14.3 knots 223° True 13.5° C / 57° F 11.2° C / 52.4° F 85.8%
Aug 7, 2020 03:10 AM 13.8 knots 11.1 knots 221° True 13.5° C / 57° F 10.9° C / 51.8° F 84.8%
Aug 7, 2020 03:00 AM 11.7 knots 9.8 knots 223° True 13.6° C / 57.2° F 10.9° C / 51.8° F 83.7%
Aug 7, 2020 02:50 AM 12.5 knots 10.3 knots 231° True 13.6° C / 57.2° F 10.9° C / 51.8° F 83.6%
Aug 7, 2020 02:40 AM 12.5 knots 11 knots 231° True 13.6° C / 57.2° F 10.9° C / 51.8° F 83.7%
Aug 7, 2020 02:30 AM 14.7 knots 12.3 knots 228° True 13.7° C / 57.4° F 11° C / 52° F 83.8%
Aug 7, 2020 02:20 AM 16.9 knots 13.8 knots 227° True 13.7° C / 57.4° F 11° C / 52° F 83.3%
Aug 7, 2020 02:10 AM 20.5 knots 15.5 knots 226° True 13.9° C / 57.8° F 10.9° C / 51.8° F 82.1%
Aug 7, 2020 02:00 AM 21.3 knots 18.2 knots 227° True 14.2° C / 58.4° F 10.8° C / 51.6° F 80.3%
Aug 7, 2020 01:50 AM 20.9 knots 17.6 knots 222° True 14.1° C / 58.2° F 10.7° C / 51.4° F 79.7%
Aug 7, 2020 01:40 AM 18.9 knots 16.6 knots 216° True 14° C / 58° F 10.7° C / 51.4° F 80.6%
Aug 7, 2020 01:30 AM 17.7 knots 16.2 knots 208° True 13.9° C / 57.8° F 10.9° C / 51.8° F 81.9%
Aug 7, 2020 01:20 AM 19 knots 16.5 knots 210° True 13.9° C / 57.8° F 11° C / 52° F 82.7%
Aug 7, 2020 01:10 AM 16.8 knots 14.1 knots 210° True 13.7° C / 57.4° F 11.1° C / 52.2° F 84.8%
Aug 7, 2020 01:00 AM 15.5 knots 13.5 knots 207° True 13.6° C / 57.2° F 11.4° C / 52.8° F 86.4%
Aug 7, 2020 12:50 AM 17 knots 14.6 knots 204° True 13.7° C / 57.4° F 11.5° C / 53° F 86.6%
Aug 7, 2020 12:40 AM 18.3 knots 16 knots 204° True 13.9° C / 57.8° F 11.6° C / 53.2° F 85.9%
Aug 7, 2020 12:30 AM 17 knots 15 knots 202° True 13.9° C / 57.8° F 11.6° C / 53.2° F 85.7%
Aug 7, 2020 12:20 AM 17.1 knots 14 knots 197° True 14.1° C / 58.2° F 11.6° C / 53.2° F 84.9%
Aug 7, 2020 12:10 AM 19.1 knots 14.3 knots 198° True 14.2° C / 58.4° F 11.6° C / 53.2° F 84.3%